Tiempo atmosférico en la estación meteorológica de Portocolom, Illes Balears (17 m.)



Fecha
DESCASC
Temp. máxima en grados centígrados (hora)
DESCASC
Temp. mínima en grados centígrados (hora)
DESCASC
Temp. media en grados centígrados
DESCASC
Racha de viento máxima en m/sg (hora)
DESCASC
Velocidad máxima media en intervalos de 10 minutos(hora)
DESCASC
Precipitaciones diarias en mm
DESCASC
Precipitaciones de 00:00 a 06:00 en mm
DESCASC
Precipitaciones de 06:00 a 12:00 en mm
DESCASC
Precipitaciones de 12:00 a 18:00 en mm
DESCASC
Precipitaciones de 18:00 a 24:00 en mm
DESCASC
23-06-2019 26.5 (15:40) 18.7 (06:20) 22.6 6.11 (17:50) 3.89 (10:00) 0 0 0 0 0
22-06-2019 25.6 (15:30) 18.7 (05:40) 22.2 9.44 (10:10) 6.11 (10:00) 0 0 0 0 0
21-06-2019 26.6 (12:00) 18.8 (06:10) 22.7 6.67 (21:00) 5.83 (13:40) 0 0 0 0 0
20-06-2019 26.4 (15:30) 18.9 (00:00) 22.6 6.67 (02:00) 5 (02:10) 0 0 0 0 0
19-06-2019 25.4 (13:50) 16.4 (00:00) 20.9 11.11 (16:40) 9.17 (18:40) 0 0 0 0 0
18-06-2019 26.1 (17:20) 16.1 (00:00) 21.1 4.72 (16:50) 3.89 (16:20) 0 0 0 0 0
17-06-2019 26 (15:30) 16.3 (00:00) 21.1 7.5 (18:00) 6.11 (16:10) 0 0 0 0 0
16-06-2019 23.8 (17:00) 17.9 (00:00) 20.8 10.83 (09:40) 7.5 (09:00) 0 0 0 0 0
15-06-2019 26.2 (11:50) 18.4 (00:00) 22.3 11.67 (09:40) 9.44 (14:20) 0 0 0 0 0
14-06-2019 26.1 (14:50) 19.9 (00:00) 23 16.94 (11:00) 10.56 (15:50) 0.4 0 0 0.4 0
13-06-2019 22.7 (12:30) 18 (00:00) 20.4 11.67 (15:10) 8.33 (15:10) 0 0 0 0 0
12-06-2019 21.5 (12:00) 16.6 (00:00) 19.1 10.28 (01:50) 6.67 (02:50) 0 0 0 0 0
11-06-2019 24.9 (16:00) 15.5 (00:00) 20.2 10.83 (23:59) 6.11 (23:40) 0 0 0 0 0
10-06-2019 24 (10:40) 18 (00:00) 21 10.56 (15:40) 7.78 (15:30) 0 0 0 0 0
09-06-2019 29.3 (14:00) 19.5 (00:00) 24.4 10.83 (00:40) 6.94 (00:40) 0 0 0 0 0
08-06-2019 24.2 (14:50) 18.6 (00:00) 21.4 12.5 (10:50) 8.06 (06:50) 0 0 0 0 0
07-06-2019 28.1 (16:00) 17.5 (00:00) 22.8 10.83 (15:10) 7.22 (11:10) 0 0 0 0 0
06-06-2019 23.8 (15:50) 17.9 (00:00) 20.8 7.22 (04:10) 4.72 (04:10) 0 0 0 0 0
05-06-2019 28.3 (16:40) 17 (00:00) 22.6 13.61 (13:20) 10 (12:00) 0 0 0 0 0
04-06-2019 26.3 (16:10) 14.8 (00:00) 20.5 5.56 (23:40) 4.72 (23:40) 0 0 0 0 0
03-06-2019 24.6 (12:50) 14.4 (00:00) 19.5 5.56 (15:20) 5 (15:20) 0 0 0 0 0
02-06-2019 24.2 (14:50) 14.6 (00:00) 19.4 4.44 (12:40) 3.61 (19:10) 0 0 0 0 0
01-06-2019 23.7 (14:00) 14 (00:00) 18.9 4.72 (15:10) 3.33 (18:00) 0 0 0 0 0
31-05-2019 24.4 (15:30) 13.8 (00:00) 19.1 6.39 (11:30) 5.56 (11:30) 0 0 0 0 0
30-05-2019 23.4 (15:40) 14.5 (00:00) 18.9 10 (18:00) 8.06 (17:50) 0 0 0 0 0
29-05-2019 21.7 (15:40) 15.6 (00:00) 18.7 8.61 (13:20) 6.11 (13:40) 0 0 0 0 0
28-05-2019 22.5 (15:40) 15.7 (00:00) 19.1 11.94 (19:30) 8.89 (14:50) 0 0 0 0 0
27-05-2019 24.8 (10:30) 17 (00:00) 20.9 8.89 (15:20) 7.22 (18:10) 0 0 0 0 0

Gráficas

Temp. máximas Temp. mínimas Temp. medias Precipitaciones Rachas de viento máximas Velocidades máximas media en intervalos de 10 minutos

Datos horarios

Fecha y hora oficial Temperatura (ºC) Velocidad del viento (km/h) Dirección del viento Racha (km/h) Dirección de racha Precipitación (mm) Presión (hPa) Tendencia (hPa) Humedad (%)
2019-06-25 23:00:00 23.1 17 Este 28 Este 0 1014.5 0.5 90
2019-06-25 22:00:00 23.3 14 Este 23 Este 0 1014.4 0.4 90
2019-06-25 21:00:00 23.7 15 Este 21 Nordeste 0 1014.3 0.1 88
2019-06-25 20:00:00 24.5 12 Nordeste 18 Nordeste 0 1014 -0.3 82
2019-06-25 19:00:00 25.4 9 Nordeste 13 Nordeste 0 1014 -0.5 77
2019-06-25 18:00:00 25.3 9 Este 14 Este 0 1014.2 -0.3 75
2019-06-25 17:00:00 26.4 5 Este 11 Este 0 1014.3 -0.6 70
2019-06-25 16:00:00 26.4 6 Este 10 Este 0 1014.5 -0.4 69
2019-06-25 15:00:00 27.4 5 Sur 13 Sudeste 0 1014.5 -0.3 66
2019-06-25 14:00:00 26 6 Sudeste 12 Sudeste 0 1014.9 0.6 72
2019-06-25 13:00:00 25.9 4 Sur 9 Sudeste 0 1014.9 0.9 72
2019-06-25 12:00:00 24.5 4 Sudeste 8 Sudeste 0 1014.8 1.1 77
2019-06-25 11:00:00 23.9 4 Sudeste 8 Sudeste 0 1014.3 1.3 78
2019-06-25 10:00:00 23.5 5 Sur 9 Sur 0 1014 1.4 80
2019-06-25 09:00:00 22.7 5 Sur 13 Sur 0 1013.7 1.7 83
2019-06-25 08:00:00 22.5 5 Sur 12 Sudeste 0 1013 1.1 85
2019-06-25 07:00:00 22.2 5 Sur 17 Sur 0 1012.6 0.6 86
2019-06-25 06:00:00 22.2 8 Sur 16 Sudeste 0 1012 -0.4 86
2019-06-25 05:00:00 22.1 6 Sur 16 Sudeste 0 1011.9 -0.4 85
2019-06-25 04:00:00 22.2 6 Sudeste 13 Este 0 1012 -0.4 86
2019-06-25 03:00:00 22.1 5 Sudeste 16 Sudeste 0 1012.4 0 86
2019-06-25 02:00:00 22.4 7 Sudeste 17 Sudeste 0 1012.3 0 87
2019-06-25 01:00:00 22.4 8 Sudeste 21 Sudeste 0 1012.4 0.7 87
2019-06-25 00:00:00 22.6 10 Sudeste 20 Sudeste 0 1012.4 1 87
2019-06-24 23:00:00 22.8 12 Sudeste 20 Sudeste 0 1012.3 1.6 88
2019-06-24 22:00:00 22.8 10 Este 20 Sudeste 0 1011.7 1.1 88
2019-06-24 21:00:00 22.9 12 Sudeste 22 Sudeste 0 1011.4 0.6 87
2019-06-24 20:00:00 23.5 10 Este 19 Este 0 1010.7 -0.1 87
2019-06-24 19:00:00 24.1 8 Este 17 Este 0 1010.6 -0.6 83
2019-06-24 18:00:00 24.8 9 Este 16 Este 0 1010.8 -0.6 79
2019-06-24 17:00:00 25.5 8 Este 15 Este 0 1010.8 -0.9 76
2019-06-24 16:00:00 26.3 7 Sudeste 18 Este 0 1011.2 -0.7 72
2019-06-24 15:00:00 25.2 12 Este 19 Este 0 1011.4 -0.9 76
2019-06-24 14:00:00 26 10 Este 19 Este 0 1011.7 -0.6 74
2019-06-24 13:00:00 26.9 11 Este 20 Este 0 1011.9 0.2 71
2019-06-24 12:00:00 26.4 11 Este 20 Este 0 1012.3 0.9 69
2019-06-24 11:00:00 25.3 13 Este 22 Este 0 1012.3 1.1 73
2019-06-24 10:00:00 24.9 13 Nordeste 23 Nordeste 0 1011.7 0.9 74
2019-06-24 09:00:00 23.9 13 Nordeste 24 Este 0 1011.4 1.1 79
2019-06-24 08:00:00 23 14 Nordeste 23 Nordeste 0 1011.2 0.4 81
2019-06-24 07:00:00 22.3 14 Nordeste 27 Nordeste 0 1010.8 -0.4 81
2019-06-24 06:00:00 22.2 18 Nordeste 29 Nordeste 0 1010.3 -1.6 82
2019-06-24 05:00:00 22.3 17 Nordeste 30 Nordeste 0 1010.8 -1.9 83
2019-06-24 04:00:00 22.2 20 Nordeste 29 Nordeste 0 1011.2 -1.7 82
2019-06-24 03:00:00 21.7 14 Nordeste 26 Nordeste 0 1011.9 -0.7 87
2019-06-24 02:00:00 22 12 Nordeste 22 Nordeste 0 1012.7 -0.1 86
2019-06-24 01:00:00 22.1 12 Nordeste 20 Nordeste 0 1012.9 0.6 86
2019-06-24 00:00:00 22.2 11 Nordeste 20 Nordeste 0 1012.6 0.8 85
2019-06-23 23:00:00 22.3 12 Este 19 Este 0 1012.8 1.1 83
2019-06-23 22:00:00 22.6 13 Este 21 Este 0 1012.3 0.7 82
2019-06-23 21:00:00 22.9 12 Nordeste 21 Nordeste 0 1011.8 -0.2 79
2019-06-23 20:00:00 24.1 12 Nordeste 21 Nordeste 0 1011.7 -0.8 76
2019-06-23 19:00:00 25 11 Nordeste 21 Nordeste 0 1011.6 -1.1 73
2019-06-23 18:00:00 25.8 10 Nordeste 22 Este 0 1012 -1 69
2019-06-23 17:00:00 25.9 12 Nordeste 21 Este 0 1012.5 -0.8 68
2019-06-23 16:00:00 25.7 13 Este 19 Este 0 1012.7 -0.8 68
2019-06-23 15:00:00 26 12 Este 18 Este 0 1013 -0.5 67
2019-06-23 14:00:00 25.8 8 Este 17 Este 0 1013.3 0.1 68
2019-06-23 13:00:00 25.6 10 Este 19 Este 0 1013.5 0.4 70
2019-06-23 12:00:00 24.9 12 Este 17 Este 0 1013.5 0.5 72
2019-06-23 11:00:00 24.7 9 Nordeste 18 Este 0 1013.2 0.6 73
2019-06-23 10:00:00 23.5 14 Nordeste 20 Nordeste 0 1013.1 0.5 76
2019-06-23 09:00:00 22.6 13 Nordeste 19 Nordeste 0 1013 0.9 82
2019-06-23 08:00:00 20.8 8 Nordeste 17 Nordeste 0 1012.6 0.3 91
2019-06-23 07:00:00 18.9 8 Norte 14 Norte 0 1012.6 -0.2 94
2019-06-23 06:00:00 18.8 10 Norte 15 Norte 0 1012.1 -0.8 93
2019-06-23 05:00:00 18.9 10 Norte 14 Norte 0 1012.3 -0.8 92
2019-06-23 04:00:00 19.1 9 Norte 11 Norte 0 1012.8 -0.4 90
2019-06-23 03:00:00 19 7 Norte 12 Norte 0 1012.9 -0.3 88
2019-06-23 02:00:00 19.5 4 Norte 10 Norte 0 1013.1 -0.4 87
2019-06-23 01:00:00 19.6 9 Norte 12 Norte 0 1013.2 0 86
2019-06-23 00:00:00 20 8 Norte 11 Norte 0 1013.2 0.5 85
2019-06-22 23:00:00 21.2 8 Este 13 Este 0 1013.5 0.5 83
2019-06-22 22:00:00 21.3 8 Este 14 Este 0 1013.2 0.2 80
2019-06-22 21:00:00 21.9 9 Este 16 Nordeste 0 1012.7 -0.7 78
2019-06-22 20:00:00 23.4 10 Nordeste 16 Nordeste 0 1013 -0.7 72
2019-06-22 19:00:00 24.3 10 Nordeste 17 Este 0 1013 -1 67
2019-06-22 18:00:00 23.6 12 Este 21 Este 0 1013.4 -0.9 68
2019-06-22 17:00:00 23.5 14 Este 21 Este 0 1013.7 -0.9 67
2019-06-22 16:00:00 23.8 13 Nordeste 26 Nordeste 0 1014 -0.8 65
2019-06-22 15:00:00 24.8 15 Nordeste 28 Este 0 1014.3 -0.7 62
2019-06-22 14:00:00 23.8 19 Este 28 Este 0 1014.6 -0.2 68
2019-06-22 13:00:00 24 16 Nordeste 26 Este 0 1014.8 0.4 67
2019-06-22 12:00:00 24.5 15 Nordeste 27 Nordeste 0 1015 0.9 66
2019-06-22 11:00:00 23.3 17 Nordeste 34 Este 0 1014.8 1 69
2019-06-22 10:00:00 22.4 22 Este 32 Este 0 1014.4 1 73
2019-06-22 09:00:00 22.3 17 Nordeste 30 Nordeste 0 1014.1 1.2 74
2019-06-22 08:00:00 21 12 Nordeste 20 Nordeste 0 1013.8 1 79
2019-06-22 07:00:00 19.6 10 Nordeste 21 Nordeste 0 1013.4 0.3 86
2019-06-22 06:00:00 18.9 11 Norte 17 Norte 0 1012.9 -0.1 86
2019-06-22 05:00:00 19.3 11 Norte 18 Norte 0 1012.8 -0.2 84
2019-06-22 04:00:00 19.6 10 Norte 19 Nordeste 0 1013.1 0.1 83
2019-06-22 03:00:00 20.5 11 Norte 17 Norte 0 1013 0.2 82
2019-06-22 02:00:00 20.5 9 Norte 17 Nordeste 0 1013 0.3 84
2019-06-22 01:00:00 20.3 7 Norte 13 Norte 0 1013 1 87
2019-06-22 00:00:00 20.7 7 Norte 16 Nordeste 0 1012.8 1.3 88
2019-06-21 23:00:00 21.3 10 Nordeste 17 Este 0 1012.7 1.9 88
2019-06-21 22:00:00 21.7 14 Este 24 Este 0 1012 1.3 86
2019-06-21 21:00:00 22.2 14 Este 24 Este 0 1011.5 0.8 85
2019-06-21 20:00:00 23.7 6 Este 11 Este 0 1010.8 0.1 73
2019-06-21 19:00:00 25.1 4 Sudeste 10 Sudeste 0 1010.7 -0.1 68
2019-06-21 18:00:00 25.3 7 Sur 19 Sudoeste 0 1010.7 -0.5 68
2019-06-21 17:00:00 25.9 15 Sudoeste 22 Sudoeste 0 1010.7 -0.8 66
2019-06-21 16:00:00 25.3 19 Sudoeste 23 Sudoeste 0 1010.8 -1.1 67
2019-06-21 15:00:00 25.8 16 Sudoeste 21 Sudoeste 0 1011.2 -0.8 67
2019-06-21 14:00:00 25.6 20 Sur 24 Sur 0 1011.5 0.2 71
2019-06-21 13:00:00 25.4 14 Sur 17 Sur 0 1011.9 0.3 71
2019-06-21 12:00:00 26.5 9 Sur 14 Sudoeste 0 1012 0.3 70
2019-06-21 11:00:00 24.6 6 Sudeste 14 Sudeste 0 1011.3 0.5 75
2019-06-21 10:00:00 23.9 4 Sudeste 10 Sudeste 0 1011.6 0.9 78
2019-06-21 09:00:00 22.7 6 Nordeste 10 Este 0 1011.7 1.5 79
2019-06-21 08:00:00 20.3 6 Norte 13 Norte 0 1010.8 0.9 91
2019-06-21 07:00:00 19 8 Norte 12 Norte 0 1010.7 0.5 93
2019-06-21 06:00:00 19 7 Norte 11 Norte 0 1010.2 -0.3 93
2019-06-21 05:00:00 19.4 8 Norte 11 Norte 0 1009.9 -0.9 92
2019-06-21 04:00:00 19.7 8 Norte 10 Norte 0 1010.2 -0.7 91
2019-06-21 03:00:00 21 3 Noroeste 10 Sudoeste 0 1010.5 -0.3 90
2019-06-21 02:00:00 21.4 9 Sudoeste 14 Sur 0 1010.8 -0.3 91
2019-06-21 01:00:00 21.2 6 Sudoeste 7 Sudoeste 0 1010.9 0.4 90
2019-06-21 00:00:00 21.7 5 Sur 8 Sur 0 1010.8 1.2 89
2019-06-20 23:00:00 21.7 4 Sur 11 Sur 0 1011.1 1.7 87
2019-06-20 22:00:00 22.1 9 Sudoeste 13 Sudoeste 0 1010.5 1 88
2019-06-20 21:00:00 22.5 11 Sudoeste 14 Sudoeste 0 1009.6 -0.2 85
2019-06-20 20:00:00 23.7 11 Sudoeste 19 Sudoeste 0 1009.4 -0.9 80
2019-06-20 19:00:00 24.7 17 Sur 19 Sur 0 1009.5 -1.2 74
2019-06-20 18:00:00 25.2 16 Sur 20 Sur 0 1009.8 -1.3 71
2019-06-20 17:00:00 26 15 Sudoeste 19 Sudoeste 0 1010.3 -1.3 68
2019-06-20 16:00:00 26 15 Sur 20 Sur 0 1010.7 -1.2 67
2019-06-20 15:00:00 25.8 13 Sur 17 Sur 0 1011.1 -0.6 67
2019-06-20 14:00:00 25.7 10 Sur 16 Sur 0 1011.6 0.2 66
2019-06-20 13:00:00 24.7 14 Sur 17 Sur 0 1011.9 0.7 70
2019-06-20 12:00:00 24.4 9 Sudeste 21 Sur 0 1011.7 1.2 72
2019-06-20 11:00:00 23.9 11 Sudeste 22 Sudeste 0 1011.4 1.6 73
2019-06-20 10:00:00 23.5 9 Sudeste 17 Sudeste 0 1011.2 1.1 74
2019-06-20 09:00:00 23 10 Nordeste 20 Nordeste 0 1010.5 0.3 69
2019-06-20 08:00:00 20.5 10 Nordeste 16 Norte 0 1009.8 -0.8 82
2019-06-20 07:00:00 19.1 9 Norte 13 Norte 0 1010.1 -0.4 88
2019-06-20 06:00:00 19.7 6 Norte 11 Noroeste 0 1010.2 -0.4 85
2019-06-20 05:00:00 21 8 Oeste 16 Oeste 0 1010.6 -0.2 81
2019-06-20 04:00:00 21.1 8 Sudoeste 17 Oeste 0 1010.5 -0.4 83
2019-06-20 03:00:00 21 9 Sudoeste 24 Sudoeste 0 1010.6 -0.3 84
2019-06-20 02:00:00 21 15 Sudoeste 24 Sudoeste 0 1010.8 0 86
2019-06-20 01:00:00 20.3 9 Sudoeste 17 Oeste 0 1010.9 0.6 89
2019-06-20 00:00:00 20.4 8 Oeste 13 Oeste 0 1010.9 0.7 89
2019-06-19 23:00:00 21.1 10 Sudoeste 14 Sudoeste 0 1010.8 0.7 90
2019-06-19 22:00:00 21.5 9 Sudoeste 17 Sudoeste 0 1010.3 0.2 85
2019-06-19 21:00:00 22.4 14 Sudoeste 32 Sudoeste 0 1010.2 -0.2 83
2019-06-19 20:00:00 22.9 25 Sudoeste 36 Sudoeste 0 1010.1 -0.7 82
2019-06-19 19:00:00 23.5 28 Sudoeste 40 Sudoeste 0 1010.1 -1.2 79
2019-06-19 18:00:00 24.2 30 Sudoeste 39 Sudoeste 0 1010.4 -1.2 75
2019-06-19 17:00:00 24.7 30 Sudoeste 40 Sudoeste 0 1010.8 -1.2 75
2019-06-19 16:00:00 25 30 Sudoeste 37 Sudoeste 0 1011.3 -1.2 72
2019-06-19 15:00:00 25.2 28 Sudoeste 36 Sudoeste 0 1011.6 -0.8 71
2019-06-19 14:00:00 25.2 27 Sudoeste 33 Sudoeste 0 1012 -0.2 71
2019-06-19 13:00:00 24.9 28 Sudoeste 34 Sudoeste 0 1012.5 0.7 73
2019-06-19 12:00:00 24.6 25 Sudoeste 30 Sudoeste 0 1012.4 0.2 74
2019-06-19 11:00:00 23.6 17 Sur 20 Sur 0 1012.2 0.3 78
2019-06-19 10:00:00 23.3 6 Este 9 Este 0 1011.8 0 80
2019-06-19 09:00:00 21.4 2 Sudoeste 6 Sudoeste 0 1012.2 0.4 87
2019-06-19 08:00:00 19.2 6 Norte 7 Norte 0 1011.9 0.5 91
2019-06-19 07:00:00 17.8 2 Noroeste 8 Noroeste 0 1011.8 0.4 93
2019-06-19 06:00:00 16.4 4 Oeste 8 Noroeste 0 1011.8 0.2 89
2019-06-19 05:00:00 17.4 5 Noroeste 7 Noroeste 0 1011.4 -0.3 89
2019-06-19 04:00:00 18 5 Noroeste 8 Noroeste 0 1011.4 -0.8 89
2019-06-19 03:00:00 17.9 6 Noroeste 9 Noroeste 0 1011.6 -1.2 89
2019-06-19 02:00:00 18 3 Noroeste 6 Noroeste 0 1011.7 -1 85
2019-06-19 01:00:00 18.6 3 Oeste 9 Norte 0 1012.2 -0.4 86
2019-06-19 00:00:00 18.5 5 Sudoeste 7 Sudoeste 0 1012.8 0.2 81
2019-06-18 23:00:00 19.8 2 Noroeste 6 Sudoeste 0 1012.7 0 81
2019-06-18 22:00:00 21.1 0 Calma 10 Sudoeste 0 1012.6 0.1 82
2019-06-18 21:00:00 22.5 9 Sudoeste 13 Sudoeste 0 1012.6 -0.2 77
2019-06-18 20:00:00 24.9 9 Sudoeste 13 Sur 0 1012.7 -0.6 68
2019-06-18 19:00:00 24.6 10 Sur 15 Sudoeste 0 1012.5 -1.1 67
2019-06-18 18:00:00 25.4 13 Sur 16 Sur 0 1012.8 -1.2 62
2019-06-18 17:00:00 25.8 14 Sudoeste 17 Sur 0 1013.3 -1 63
2019-06-18 16:00:00 25.3 13 Sur 16 Sur 0 1013.6 -1 63
2019-06-18 15:00:00 25.8 8 Sur 14 Sudeste 0 1014 -0.6 65
2019-06-18 14:00:00 25.8 7 Sudeste 14 Sudeste 0 1014.3 -0.4 64
2019-06-18 13:00:00 25.7 -- -- -- -- 0 1014.6 -0.1 64
2019-06-18 12:00:00 24.8 7 Este 12 Sudeste 0 1014.6 0.3 67
2019-06-18 11:00:00 24 6 Sudeste 9 Sudeste 0 1014.7 0.8 67
2019-06-18 10:00:00 23.9 4 Sudeste 7 Sudeste 0 1014.7 1.2 64
2019-06-18 09:00:00 23.3 4 Este 8 Nordeste 0 1014.3 1 59
2019-06-18 08:00:00 20.3 3 Nordeste 6 Norte 0 1013.9 0.7 62
2019-06-18 07:00:00 16.9 6 Norte 9 Norte 0 1013.5 0 64
2019-06-18 06:00:00 16.7 8 Norte 9 Norte 0 1013.3 -0.3 64
2019-06-18 05:00:00 16.8 4 Noroeste 10 Sudoeste 0 1013.2 -0.9 73
2019-06-18 04:00:00 17.6 5 Oeste 7 Oeste 0 1013.5 -0.9 64
2019-06-18 03:00:00 17.6 6 Norte 9 Norte 0 1013.6 -1.1 62
2019-06-18 02:00:00 18.2 5 Nordeste 10 Norte 0 1014.1 -0.1 62
2019-06-18 01:00:00 18.9 9 Norte 10 Norte 0 1014.4 0.4 60
2019-06-18 00:00:00 19.4 0 Calma 8 Norte 0 1014.7 0.9 66
2019-06-17 23:00:00 20.5 7 Norte 12 Oeste 0 1014.2 0.5 62
2019-06-17 22:00:00 21.4 8 Oeste 14 Oeste 0 1014 0.4 60
2019-06-17 21:00:00 22 11 Sudoeste 23 Sudoeste 0 1013.8 0 68
2019-06-17 20:00:00 23.2 19 Sudoeste 24 Sudoeste 0 1013.7 -0.7 69
2019-06-17 19:00:00 24.3 18 Sudoeste 26 Sudoeste 0 1013.6 -1.4 64
2019-06-17 18:00:00 24.8 21 Sudoeste 27 Sudoeste 0 1013.8 -1.5 65
2019-06-17 17:00:00 25.5 20 Sudoeste 25 Sudoeste 0 1014.4 -0.9 58
2019-06-17 16:00:00 25.6 20 Sudoeste 24 Sudoeste 0 1015 -0.6 59
2019-06-17 15:00:00 25.8 19 Sudoeste 24 Sudoeste 0 1015.3 -0.2 61
2019-06-17 14:00:00 25.1 19 Sudoeste 21 Sudoeste 0 1015.3 0 67
2019-06-17 13:00:00 24.3 13 Sur 17 Sur 0 1015.6 0.5 69
2019-06-17 12:00:00 23.8 14 Sur 18 Sur 0 1015.5 0.5 71
2019-06-17 11:00:00 24 8 Sur 11 Sur 0 1015.3 0.6 61
2019-06-17 10:00:00 23.3 5 Sudeste 13 Sudeste 0 1015.1 0.6 61
2019-06-17 09:00:00 21.4 3 Nordeste 11 Norte 0 1015 0.4 58
2019-06-17 08:00:00 19.1 7 Norte 15 Norte 0 1014.7 -0.4 63
2019-06-17 07:00:00 18.2 11 Norte 17 Norte 0 1014.5 -0.5 73
2019-06-17 06:00:00 16.5 9 Norte 14 Norte 0 1014.6 -0.4 80
2019-06-17 05:00:00 16.9 8 Norte 9 Norte 0 1015.1 -0.4 61
2019-06-17 04:00:00 16.7 6 Norte 12 Norte 0 1015 -0.9 75
2019-06-17 03:00:00 17.3 7 Norte 9 Norte 0 1015 -0.8 71
2019-06-17 02:00:00 17.7 5 Norte 7 Norte 0 1015.5 -0.2 81
2019-06-17 01:00:00 18.8 4 Sudoeste 7 Sudoeste 0 1015.9 0.2 87
2019-06-17 00:00:00 18.5 5 Noroeste 12 Norte 0 1015.8 0.3 85
2019-06-16 23:00:00 19.3 3 Norte 5 Nordeste 0 1015.7 0.2 84
2019-06-16 22:00:00 19.7 3 Nordeste 9 Nordeste 0 1015.7 0 82
2019-06-16 21:00:00 20.4 6 Este 10 Este 0 1015.5 -0.3 81
2019-06-16 20:00:00 20.9 9 Este 15 Este 0 1015.5 -1 78
2019-06-16 19:00:00 21.7 7 Este 18 Este 0 1015.7 -1.2 74
2019-06-16 18:00:00 22.1 10 Este 19 Este 0 1015.8 -1.5 72
2019-06-16 17:00:00 23.4 10 Este 22 Este 0 1016.5 -1.2 66
2019-06-16 16:00:00 22.9 17 Este 27 Este 0 1016.9 -0.9 67
2019-06-16 15:00:00 22.8 18 Este 30 Este 0 1017.3 -0.7 65
2019-06-16 14:00:00 22.3 22 Este 31 Este 0 1017.7 0 65
2019-06-16 13:00:00 22.8 20 Este 32 Este 0 1017.8 0.6 66
2019-06-16 12:00:00 22.6 18 Nordeste 31 Este 0 1018 1 67
2019-06-16 11:00:00 22.8 17 Nordeste 35 Nordeste 0 1017.7 0.8 67
2019-06-16 10:00:00 21.5 23 Nordeste 39 Nordeste 0 1017.2 0.3 71
2019-06-16 09:00:00 20.8 27 Nordeste 37 Nordeste 0 1017 0.1 71
2019-06-16 08:00:00 19.8 16 Nordeste 27 Nordeste 0 1016.9 0.1 74
2019-06-16 07:00:00 18.4 15 Nordeste 25 Nordeste 0 1016.9 -0.2 82
2019-06-16 06:00:00 18.1 12 Nordeste 24 Nordeste 0 1016.9 -0.4 85
2019-06-16 05:00:00 19 15 Nordeste 30 Nordeste 0 1016.8 -0.6 83
2019-06-16 04:00:00 19.2 17 Nordeste 31 Nordeste 0 1017.1 -0.2 81
2019-06-16 03:00:00 19.4 19 Nordeste 31 Nordeste 0 1017.3 0.4 81
2019-06-16 02:00:00 19.6 21 Nordeste 35 Nordeste 0 1017.4 1.1 82
2019-06-16 01:00:00 19.7 14 Nordeste 30 Nordeste 0 1017.3 1.9 84
2019-06-16 00:00:00 20 15 Nordeste 31 Nordeste 0 1016.9 2.1 85
2019-06-15 23:00:00 20.4 20 Nordeste 29 Nordeste 0 1016.3 1.7 85
2019-06-15 22:00:00 20.5 13 Nordeste 21 Nordeste 0 1015.4 1.2 88
2019-06-15 21:00:00 21 13 Este 20 Este 0 1014.8 0.7 84
2019-06-15 20:00:00 22.1 10 Este 20 Este 0 1014.6 0.6 78
2019-06-15 19:00:00 23.1 7 Este 12 Este 0 1014.2 0.6 77
2019-06-15 18:00:00 23.7 8 Este 13 Sudeste 0 1014.1 0.8 75
2019-06-15 17:00:00 24.6 6 Sudeste 19 Sur 0 1014 0.4 72
2019-06-15 16:00:00 24.7 21 Sudoeste 36 Sudoeste 0 1013.6 -0.2 72
2019-06-15 15:00:00 24.2 30 Sudoeste 42 Sudoeste 0 1013.3 -0.4 70
2019-06-15 14:00:00 23.7 32 Sudoeste 42 Sudoeste 0 1013.6 -0.1 72
2019-06-15 13:00:00 23.9 30 Sudoeste 37 Sudoeste 0 1013.8 0.2 71
2019-06-15 12:00:00 24.1 25 Sudoeste 35 Sudoeste 0 1013.7 0.4 70
2019-06-15 11:00:00 24.1 19 Oeste 39 Oeste 0 1013.7 0.7 60
2019-06-15 10:00:00 22.5 20 Oeste -- -- 0 1013.6 0.7 70
2019-06-15 09:00:00 21.5 21 Sudoeste 40 Oeste 0 1013.3 0.6 71
2019-06-15 08:00:00 20.9 16 Oeste 38 Sudoeste 0 1013 0.4 75
2019-06-15 07:00:00 19.6 15 Sudoeste 31 Sudoeste 0 1012.9 0.5 80
2019-06-15 06:00:00 19 15 Sudoeste 32 Sudoeste 0 1012.7 0.1 85
2019-06-15 05:00:00 18.6 13 Sudoeste 22 Sudoeste 0 1012.6 -0.1 89
2019-06-15 04:00:00 18.5 11 Sudoeste 22 Oeste 0 1012.4 -0.2 88
2019-06-15 03:00:00 19 13 Oeste 24 Sudoeste 0 1012.6 -0.1 87
2019-06-15 02:00:00 19.3 13 Sudoeste 24 Oeste 0 1012.7 -0.3 86
2019-06-15 01:00:00 19.5 14 Sudoeste 30 Sudoeste 0 1012.6 0.5 84
2019-06-15 00:00:00 19.9 22 Sudoeste 29 Sudoeste 0 1012.7 1.2 84
2019-06-14 23:00:00 20.3 14 Sudoeste 24 Sudoeste 0 1013 2 86
2019-06-14 22:00:00 20.8 19 Sudoeste 31 Sudoeste 0 1012.1 1.6 84
2019-06-14 21:00:00 21.5 16 Oeste 34 Oeste 0 1011.5 1.5 80
2019-06-14 20:00:00 23.5 14 Sudoeste 39 Oeste 0 1011 1 69
2019-06-14 19:00:00 24.4 23 Oeste 40 Oeste 0 1010.5 0.9 59
2019-06-14 18:00:00 25.4 18 Oeste 45 Oeste 0 1010 1.5 55
2019-06-14 17:00:00 24.5 26 Oeste 50 Oeste 0 1010 1.6 52
2019-06-14 16:00:00 24.6 31 Oeste 59 Oeste 0 1009.6 1.5 53
2019-06-14 15:00:00 25.7 22 Oeste 42 Oeste 0 1008.5 1.4 51
2019-06-14 14:00:00 24 21 Oeste 51 Oeste 0 1008.4 2.7 60
2019-06-14 13:00:00 22.4 34 Oeste 55 Oeste 0.4 1008.1 2.5 69
2019-06-14 12:00:00 22.8 28 Oeste 60 Oeste 0 1007.1 2.3 69
2019-06-14 11:00:00 22.4 33 Oeste 61 Oeste 0 1005.7 2.8 72
2019-06-14 10:00:00 21.5 34 Oeste -- -- 0 1005.6 3.1 79
2019-06-14 09:00:00 22.6 18 Sudoeste 36 Sudoeste 0 1004.8 3 78
2019-06-14 08:00:00 21.2 7 Norte 16 Norte 0 1002.9 1 83
2019-06-14 07:00:00 20.8 7 Noroeste 18 Noroeste 0 1002.5 0.1 84
2019-06-14 06:00:00 20.8 10 Norte 28 Nordeste 0 1001.8 -1.8 89
2019-06-14 05:00:00 20.7 15 Nordeste 33 Nordeste 0 1001.9 -2.3 88
2019-06-14 04:00:00 20.7 20 Nordeste 37 Nordeste 0 1002.4 -2.8 87
2019-06-14 03:00:00 20.7 19 Nordeste 40 Nordeste 0 1003.6 -2.7 85
2019-06-14 02:00:00 20.9 23 Nordeste 41 Nordeste 0 1004.2 -2.4 82
2019-06-14 01:00:00 20.7 21 Nordeste 35 Nordeste 0 1005.2 -2.1 85
2019-06-14 00:00:00 20.6 19 Nordeste 40 Nordeste 0 1006.3 -0.5 87
2019-06-13 23:00:00 20.5 23 Nordeste 38 Nordeste 0 1006.6 0 88
2019-06-13 22:00:00 20.6 19 Nordeste 30 Nordeste 0 1007.3 0.2 87
2019-06-13 21:00:00 20.6 22 Nordeste 36 Nordeste 0 1006.8 -0.9 86
2019-06-13 20:00:00 20.9 19 Nordeste 36 Nordeste 0 1006.6 -1.9 83
2019-06-13 19:00:00 21.2 21 Nordeste 36 Nordeste 0 1007.1 -2 80
2019-06-13 18:00:00 22.1 21 Nordeste 41 Este 0 1007.7 -2 72
2019-06-13 17:00:00 22.1 23 Este 41 Este 0 1008.5 -2 69
2019-06-13 16:00:00 22 28 Este 42 Este 0 1009.1 -2 67
2019-06-13 15:00:00 22.1 26 Este 42 Este 0 1009.7 -1.7 65
2019-06-13 14:00:00 21.8 27 Este 41 Este 0 1010.5 -0.9 65
2019-06-13 13:00:00 21.7 25 Este 39 Este 0 1011.1 0.1 64
2019-06-13 12:00:00 22.1 22 Nordeste 39 Este 0 1011.4 0.7 61
2019-06-13 11:00:00 20.8 28 Este 40 Este 0 1011.4 1.4 67
2019-06-13 10:00:00 20.2 25 Este 39 Este 0 1011 0.3 70
2019-06-13 09:00:00 21 19 Nordeste 38 Este 0 1010.7 -0.5 72
2019-06-13 08:00:00 19.8 26 Este 41 Este 0 1010 -1.2 77
2019-06-13 07:00:00 19.1 19 Este 29 Este 0 1010.7 -1 79
2019-06-13 06:00:00 18.7 14 Nordeste 24 Este 0 1011.2 -0.7 80
2019-06-13 05:00:00 18.6 13 Este 20 Este 0 1011.2 -1 79
2019-06-13 04:00:00 18.7 12 Este 21 Este 0 1011.7 -0.8 79
2019-06-13 03:00:00 18.6 10 Este 21 Este 0 1011.9 -0.8 80
2019-06-13 02:00:00 18.6 12 Este 21 Este 0 1012.2 -0.9 79
2019-06-13 01:00:00 18.7 13 Este 23 Este 0 1012.5 -0.4 78
2019-06-13 00:00:00 18.8 12 Este 22 Este 0 1012.7 -0.1 79
2019-06-12 23:00:00 18.9 13 Este 22 Este 0 1013.1 0.3 77
2019-06-12 22:00:00 18.8 10 Este 18 Este 0 1012.9 0.4 76
2019-06-12 21:00:00 19.1 11 Sudeste 22 Sudeste 0 1012.8 0.2 73
2019-06-12 20:00:00 19.9 12 Este 23 Este 0 1012.8 -0.3 66
2019-06-12 19:00:00 20.3 14 Este 23 Sudeste 0 1012.5 -0.5 64
2019-06-12 18:00:00 20.9 12 Este 23 Este 0 1012.6 -0.7 60
2019-06-12 17:00:00 20.6 13 Este 22 Este 0 1013.1 -0.4 64
2019-06-12 16:00:00 21.1 12 Este 22 Este 0 1013 -0.4 61
2019-06-12 15:00:00 21 12 Este 24 Este 0 1013.3 0.1 61
2019-06-12 14:00:00 20.4 10 Este 21 Este 0 1013.5 0.4 65
2019-06-12 13:00:00 20.6 13 Este 22 Este 0 1013.4 0.3 64
2019-06-12 12:00:00 21.3 12 Nordeste 23 Nordeste 0 1013.2 0.5 59
2019-06-12 11:00:00 19.5 13 Nordeste 21 Nordeste 0 1013.1 1.3 68
2019-06-12 10:00:00 18.3 13 Nordeste 24 Este 0 1013.1 1.8 75
2019-06-12 09:00:00 18.2 16 Este 26 Este 0 1012.7 1.5 73
2019-06-12 08:00:00 18.2 14 Nordeste 27 Nordeste 0 1011.8 1.1 71
2019-06-12 07:00:00 17.7 15 Nordeste 25 Este 0 1011.3 0.6 74
2019-06-12 06:00:00 17.5 12 Nordeste 27 Nordeste 0 1011.2 0.3 75
2019-06-12 05:00:00 17.2 16 Nordeste 28 Nordeste 0 1010.7 -0.5 77
2019-06-12 04:00:00 17 18 Nordeste 32 Nordeste 0 1010.7 -0.8 76
2019-06-12 03:00:00 16.6 19 Nordeste 36 Nordeste 0 1010.9 -0.4 79
2019-06-12 02:00:00 16.7 18 Nordeste 37 Nordeste 0 1011.2 0.4 80
2019-06-12 01:00:00 17.2 21 Nordeste 36 Nordeste 0 1011.5 2 79
2019-06-12 00:00:00 17.9 22 Nordeste 39 Nordeste 0 1011.3 2.7 79
2019-06-11 23:00:00 19.1 20 Nordeste 33 Nordeste 0 1010.8 3.1 81
2019-06-11 22:00:00 20.5 6 Sudeste 15 Sur 0 1009.5 2 79
2019-06-11 21:00:00 20.5 12 Sudoeste 18 Sur 0 1008.6 0.9 77
2019-06-11 20:00:00 21.7 15 Sur 21 Sur 0 1007.7 -0.3 74
2019-06-11 19:00:00 22.8 18 Sur 25 Sur 0 1007.5 -0.6 71
2019-06-11 18:00:00 23.1 21 Sur 24 Sudoeste 0 1007.7 -0.6 69
2019-06-11 17:00:00 24 16 Sur 20 Sudoeste 0 1008 -0.5 64
2019-06-11 16:00:00 24.8 13 Sudoeste 19 Sur 0 1008.1 -0.9 62
2019-06-11 15:00:00 24.6 15 Sudoeste 22 Sur 0 1008.3 -0.8 62
2019-06-11 14:00:00 22.6 17 Sur 21 Sudoeste 0 1008.5 -0.5 69
2019-06-11 13:00:00 21.7 14 Sur 20 Sur -- 1009 0.2 72
2019-06-11 12:00:00 21.1 9 Sur 20 Sudeste 0 1009.1 0.3 73
2019-06-11 11:00:00 21.4 9 Sudeste 19 Sudeste 0 1009 0.1 69
2019-06-11 10:00:00 20.6 11 Este 22 Este 0 1008.8 -0.1 73
2019-06-11 09:00:00 20.2 12 Este 20 Este 0 1008.8 0 73
2019-06-11 08:00:00 19.8 10 Este 19 Este 0 1008.9 -0.3 76
2019-06-11 07:00:00 16.2 6 Norte 10 Norte 0 1008.9 -0.6 89
2019-06-11 06:00:00 15.6 8 Norte 83 Norte 0 1008.8 -1.3 89
2019-06-11 05:00:00 16.1 9 Norte 11 Norte 0 1009.2 -1.4 87
2019-06-11 04:00:00 16.4 7 Norte 9 Norte 0 1009.5 -2 86
2019-06-11 03:00:00 17.3 7 Norte 10 Sur 0 1010.1 -1.5 84
2019-06-11 02:00:00 19.4 5 Sudeste 14 Sudeste 0 1010.6 -0.9 76
2019-06-11 01:00:00 19.6 6 Sudeste 16 Sudeste 0 1011.5 0.2 81
2019-06-11 00:00:00 19.9 9 Sudeste 26 Sudeste 0 1011.6 0.8 81
2019-06-10 23:00:00 20.1 12 Sudeste 26 Sudeste 0 1011.5 1.2 84
2019-06-10 22:00:00 19.9 8 Nordeste 15 Nordeste 0 1011.3 1.5 75
2019-06-10 21:00:00 20.5 8 Nordeste 18 Este 0 1010.8 1.2 73
2019-06-10 20:00:00 21.2 9 Nordeste 28 Este 0 1010.3 0.5 71
2019-06-10 19:00:00 21.5 21 Este 31 Este 0 1009.8 -0.1 65
2019-06-10 18:00:00 23.2 16 Nordeste 32 Nordeste 0 1009.6 -0.3 59
2019-06-10 17:00:00 22.9 19 Este 32 Este 0 1009.8 -0.4 61
2019-06-10 16:00:00 23.5 21 Este 38 Este 0 1009.9 -0.6 59
2019-06-10 15:00:00 23.6 22 Este 30 Este 0 1009.9 -1.2 61
2019-06-10 14:00:00 23.6 15 Este 25 Este 0 1010.2 -1 66
2019-06-10 13:00:00 23.5 14 Este 36 Este 0 1010.5 -0.3 67
2019-06-10 12:00:00 22.6 21 Este 30 Este 0 1011.1 0.9 71
2019-06-10 11:00:00 22.7 18 Nordeste 33 Nordeste 0 1011.2 1.2 67
2019-06-10 10:00:00 23.1 20 Nordeste 36 Nordeste 0 1010.8 1 64
2019-06-10 09:00:00 22.3 17 Nordeste 30 Nordeste 0 1010.2 0.7 68
2019-06-10 08:00:00 20.5 10 Nordeste 22 Nordeste 0 1010 0.5 74
2019-06-10 07:00:00 18.8 12 Norte 19 Norte 0 1009.8 0 83
2019-06-10 06:00:00 18.3 13 Norte 24 Norte 0 1009.5 -0.5 86
2019-06-10 05:00:00 18.8 10 Noroeste 21 Noroeste 0 1009.5 -0.6 84
2019-06-10 04:00:00 19 10 Noroeste 17 Noroeste 0 1009.8 -0.7 86
2019-06-10 03:00:00 19.2 10 Norte 14 Norte 0 1010 -1.1 88
2019-06-10 02:00:00 19.6 5 Noroeste 11 Noroeste 0 1010.1 -0.7 84
2019-06-10 01:00:00 19.9 4 Noroeste 13 Oeste 0 1010.5 0.1 81
2019-06-10 00:00:00 20.3 2 Noroeste 7 Norte 0 1011.1 1 86
2019-06-09 23:00:00 20.2 2 Nordeste 9 Este 0 1010.8 1 86
2019-06-09 22:00:00 20.3 4 Nordeste 10 Este 0 1010.4 0.7 87
2019-06-09 21:00:00 20.7 4 Este 13 Este 0 1010.1 0.4 84
2019-06-09 20:00:00 21.4 8 Este 17 Nordeste 0 1009.8 0.1 81
2019-06-09 19:00:00 22.5 10 Este 19 Este 0 1009.7 0 77
2019-06-09 18:00:00 23.5 11 Nordeste 25 Nordeste 0 1009.7 0 73
2019-06-09 17:00:00 24 14 Nordeste 25 Este 0 1009.7 -0.2 74
2019-06-09 16:00:00 24.6 19 Nordeste 31 Nordeste 0 1009.7 -1.2 73
2019-06-09 15:00:00 26.3 18 Nordeste 28 Nordeste 0 1009.7 -1.4 65
2019-06-09 14:00:00 29 18 Oeste 33 Oeste 0 1009.9 -1.2 49
2019-06-09 13:00:00 24.7 21 Sudoeste 26 Sudoeste 0 1010.9 -0.5 73
2019-06-09 12:00:00 24.4 6 Sudeste 12 Este 0 1011.1 -0.3 72
2019-06-09 11:00:00 23.3 8 Este 19 Nordeste 0 1011.1 -0.5 75
2019-06-09 10:00:00 23 12 Nordeste 18 Norte 0 1011.4 -0.2 76
2019-06-09 09:00:00 21.8 10 Nordeste 22 Nordeste 0 1011.4 -0.5 82
2019-06-09 08:00:00 20.1 11 Norte 23 Nordeste 0 1011.6 -0.6 83
2019-06-09 07:00:00 20 12 Nordeste 22 Nordeste 0 1011.6 -1.1 87
2019-06-09 06:00:00 19.5 12 Nordeste 25 Nordeste 0 1011.9 -1.3 84
2019-06-09 05:00:00 19.6 15 Nordeste 26 Nordeste 0 1012.2 -1.7 82
2019-06-09 04:00:00 19.6 19 Nordeste 30 Nordeste 0 1012.7 -2 80
2019-06-09 03:00:00 19.7 21 Nordeste 34 Nordeste 0 1013.2 -2.3 75
2019-06-09 02:00:00 19.8 21 Nordeste 36 Nordeste 0 1013.9 -2.2 73
2019-06-09 01:00:00 20 24 Nordeste 39 Nordeste 0 1014.7 -2 69
2019-06-09 00:00:00 20 21 Nordeste 35 Nordeste 0 1015.5 -1 65
2019-06-08 23:00:00 20 17 Nordeste 27 Nordeste 0 1016.1 -0.8 66
2019-06-08 22:00:00 20.3 17 Nordeste 31 Nordeste 0 1016.7 0.3 65
2019-06-08 21:00:00 20.6 17 Nordeste 33 Nordeste 0 1016.5 -0.6 64
2019-06-08 20:00:00 21.3 17 Nordeste 31 Nordeste 0 1016.9 -0.7 59
2019-06-08 19:00:00 21.8 22 Nordeste 33 Nordeste 0 1016.4 -2.1 59
2019-06-08 18:00:00 22.4 22 Nordeste 36 Nordeste 0 1017.1 -1.9 58
2019-06-08 17:00:00 22.3 24 Nordeste 36 Nordeste 0 1017.6 -2 55
2019-06-08 16:00:00 22.7 24 Nordeste 36 Nordeste 0 1018.5 -1.1 51
2019-06-08 15:00:00 24 17 Nordeste 32 Nordeste 0 1019 -0.6 50
2019-06-08 14:00:00 23.3 19 Nordeste 35 Nordeste 0 1019.6 0.2 53
2019-06-08 13:00:00 22.9 21 Nordeste 36 Este 0 1019.6 0.5 55
2019-06-08 12:00:00 22.1 23 Nordeste 43 Nordeste 0 1019.6 -0.3 57
2019-06-08 11:00:00 21.5 23 Nordeste 45 Nordeste 0 1019.4 0.2 59
2019-06-08 10:00:00 20.1 22 Nordeste 40 Nordeste 0 1019.1 1 66
2019-06-08 09:00:00 19.8 24 Este 37 Este 0 1019.9 2.2 66
2019-06-08 08:00:00 19.5 22 Nordeste 42 Nordeste 0 1019.2 2.5 80
2019-06-08 07:00:00 19.5 28 Nordeste 44 Nordeste 0 1018.1 0.8 76
2019-06-08 06:00:00 19.2 23 Nordeste 35 Nordeste 0 1017.7 0.2 80
2019-06-08 05:00:00 18.7 16 Nordeste 34 Nordeste 0 1016.7 -1 85
2019-06-08 04:00:00 18.9 13 Norte 23 Nordeste 0 1017.3 0.5 87
2019-06-08 03:00:00 19.1 12 Nordeste 22 Nordeste 0 1017.5 0.8 83
2019-06-08 02:00:00 18.9 8 Nordeste 15 Nordeste 0 1017.7 1.2 88
2019-06-08 01:00:00 19.5 10 Nordeste 19 Nordeste 0 1016.8 1.2 86
2019-06-08 00:00:00 19.7 10 Nordeste 21 Nordeste 0 1016.7 1.8 84
2019-06-07 23:00:00 20 11 Nordeste 20 Nordeste 0 1016.5 2.4 86
2019-06-07 22:00:00 20.3 10 Nordeste 18 Norte 0 1015.6 2.4 84
2019-06-07 21:00:00 20.7 8 Nordeste 25 Nordeste 0 1014.9 2.1 82
2019-06-07 20:00:00 21.9 12 Nordeste 25 Este 0 1014.1 1.6 77
2019-06-07 19:00:00 22.4 15 Este 27 Este 0 1013.2 0.9 74
2019-06-07 18:00:00 23.7 12 Nordeste 24 Nordeste 0 1012.8 1.3 71
2019-06-07 17:00:00 24.7 17 Nordeste 31 Nordeste 0 1012.5 1.1 67
2019-06-07 16:00:00 26.4 10 Nordeste 39 Oeste 0 1012.3 1.1 59
2019-06-07 15:00:00 27.7 18 Oeste 36 Sudoeste 0 1011.5 0.3 44
2019-06-07 14:00:00 27.4 19 Oeste 36 Oeste 0 1011.4 0.7 45
2019-06-07 13:00:00 26.5 20 Oeste 37 Oeste 0 1011.2 1.2 48
2019-06-07 12:00:00 25.7 17 Oeste 35 Sudoeste 0 1011.2 0.6 45
2019-06-07 11:00:00 22.4 21 Sudoeste 28 Sudoeste 0 1010.7 0.6 79
2019-06-07 10:00:00 21.6 10 Sur 20 Sudeste 0 1010 0.7 80
2019-06-07 09:00:00 20.1 8 Sudoeste 13 Nordeste 0 1010.6 2 86
2019-06-07 08:00:00 19 4 Sudoeste 13 Norte 0 1010.1 1.2 89
2019-06-07 07:00:00 17.7 12 Norte 18 Norte 0 1009.3 0.1 93
2019-06-07 06:00:00 17.5 10 Norte 14 Norte 0 1008.6 -1.1 94
2019-06-07 05:00:00 17.7 7 Norte 9 Nordeste 0 1008.9 -1.1 93
2019-06-07 04:00:00 19.6 6 Sur 12 Sudeste 0 1009.2 -1.2 90
2019-06-07 03:00:00 19.7 6 Sur 12 Sur 0 1009.7 -1 90
2019-06-07 02:00:00 19.7 6 Sudeste 15 Sudeste 0 1010 -1.2 89
2019-06-07 01:00:00 19.9 8 Sudeste 19 Sudeste 0 1010.4 -0.8 88
2019-06-07 00:00:00 20 10 Sudeste 23 Sudeste 0 1010.7 -0.5 87
2019-06-06 23:00:00 20 13 Sur 24 Sudeste 0 1011.2 -0.1 87
2019-06-06 22:00:00 20.1 12 Sudeste 23 Sudeste 0 1011.2 -0.2 87
2019-06-06 21:00:00 20.3 10 Sudeste 22 Sudeste 0 1011.2 -0.8 85
2019-06-06 20:00:00 20.7 10 Sudeste 23 Sudeste 0 1011.3 -1.2 82
2019-06-06 19:00:00 21.6 10 Sudeste 24 Sudeste 0 1011.4 -1.5 78
2019-06-06 18:00:00 22 13 Sudeste 23 Sudeste 0 1012 -1.3 76
2019-06-06 17:00:00 22.9 11 Sudeste 20 Sudeste 0 1012.5 -1 73
2019-06-06 16:00:00 22.8 11 Sudeste 19 Sudeste 0 1012.9 -0.9 71
2019-06-06 15:00:00 23.5 9 Sudeste 21 Sudeste 0 1013.3 -0.6 69
2019-06-06 14:00:00 23.3 10 Sudeste 18 Sudeste 0 1013.5 -0.1 68
2019-06-06 13:00:00 22.8 10 Sudeste 19 Sudeste 0 1013.8 0.4 68
2019-06-06 12:00:00 22.4 10 Sudeste 17 Sudeste 0 1013.9 0.7 68
2019-06-06 11:00:00 21.4 10 Este 19 Este 0 1013.6 0.7 70
2019-06-06 10:00:00 20.6 10 Este 19 Este 0 1013.4 0.9 69
2019-06-06 09:00:00 20.1 10 Este 20 Este 0 1013.2 1.1 69
2019-06-06 08:00:00 19.1 12 Este 23 Este 0 1012.9 1.1 73
2019-06-06 07:00:00 18.1 13 Este 20 Nordeste 0 1012.5 1.1 78
2019-06-06 06:00:00 18 12 Nordeste 24 Este 0 1012.1 0.9 78
2019-06-06 05:00:00 18.2 13 Nordeste 26 Nordeste 0 1011.8 1.1 82
2019-06-06 04:00:00 18.6 13 Nordeste 21 Nordeste 0 1011.4 0.7 77
2019-06-06 03:00:00 18.6 10 Nordeste 16 Nordeste 0 1011.2 0.5 53
2019-06-06 02:00:00 18.6 2 Sur 9 Norte 0 1010.7 0.6 54
2019-06-06 01:00:00 18.3 6 Norte 8 Noroeste 0 1010.7 1.6 58
2019-06-06 00:00:00 19.1 5 Noroeste 8 Oeste 0 1010.7 2.2 67
2019-06-05 23:00:00 19.9 5 Norte 18 Noroeste 0 1010.1 2.3 55
2019-06-05 22:00:00 20.9 9 Oeste 20 Oeste 0 1009.1 2.1 59
2019-06-05 21:00:00 22.5 14 Oeste 30 Oeste 0 1008.5 2.1 49
2019-06-05 20:00:00 24.5 18 Oeste 34 Oeste 0 1007.8 2 38
2019-06-05 19:00:00 25.2 21 Oeste 48 Oeste 0 1007 1.6 35
2019-06-05 18:00:00 26.1 27 Oeste 45 Oeste 0 1006.4 1.3 35
2019-06-05 17:00:00 27.7 27 Oeste 47 Oeste 0 1005.8 0.7 27
2019-06-05 16:00:00 27.6 20 Oeste 41 Oeste 0 1005.4 0.2 48
2019-06-05 15:00:00 25.8 25 Oeste 42 Oeste 0 1005.1 0.2 58
2019-06-05 14:00:00 25.1 24 Oeste 49 Sudoeste 0 1005.1 -0.1 61
2019-06-05 13:00:00 24.1 24 Oeste 45 Oeste 0 1005.2 -0.1 64
2019-06-05 12:00:00 23.1 36 Sudoeste 46 Sudoeste 0 1004.9 -0.3 75
2019-06-05 11:00:00 22.5 33 Sudoeste 41 Sudoeste 0 1005.2 -0.3 76
2019-06-05 10:00:00 21.8 23 Sudoeste 29 Sudoeste 0 1005.3 0.1 79
2019-06-05 09:00:00 20.7 16 Sudoeste 24 Sudoeste 0 1005.2 0.1 83
2019-06-05 08:00:00 19.2 12 Sudoeste 21 Sudoeste 0 1005.5 0.1 91
2019-06-05 07:00:00 17.4 3 Noroeste 10 Sudoeste 0 1005.2 -0.5 92
2019-06-05 06:00:00 17.5 2 Oeste 7 Sudoeste 0 1005.1 -1.6 92
2019-06-05 05:00:00 17.7 4 Sudoeste 7 Sudoeste 0 1005.4 -1.8 93
2019-06-05 04:00:00 17.1 5 Norte 7 Norte 0 1005.7 -1.9 93
2019-06-05 03:00:00 17.4 5 Norte 8 Norte 0 1006.7 -1.2 92
2019-06-05 02:00:00 18 3 Noroeste 12 Sur 0 1007.2 -1 89
2019-06-05 01:00:00 20.1 10 Sur 17 Sudoeste 0 1007.6 -0.3 88
2019-06-05 00:00:00 20.4 15 Sur 20 Sur 0 1007.9 -0.2 86
2019-06-04 23:00:00 20.5 12 Sur 15 Sur 0 1008.2 -0.2 85
2019-06-04 22:00:00 20.7 8 Sur 10 Sur 0 1007.9 -0.9 83
2019-06-04 21:00:00 21.4 6 Sur 12 Sudeste 0 1008.1 -1.2 78
2019-06-04 20:00:00 23.4 6 Sudeste 12 Este 0 1008.4 -1.5 69
2019-06-04 19:00:00 24.2 6 Sudeste 14 Sudeste 0 1008.8 -1.6 65
2019-06-04 18:00:00 24.9 8 Sudeste 15 Sudeste 0 1009.3 -1.6 61
2019-06-04 17:00:00 25.8 6 Sudeste 13 Sudeste 0 1009.9 -1.5 56
2019-06-04 16:00:00 25.8 6 Sudeste 12 Sudeste 0 1010.4 -1.8 55
2019-06-04 15:00:00 25.9 6 Sudeste 12 Sudeste 0 1010.9 -1.6 53
2019-06-04 14:00:00 25.5 5 Sudeste 9 Sudeste 0 1011.4 -0.9 59
2019-06-04 13:00:00 24.4 5 Sudeste 10 Este 0 1012.2 0.1 63
2019-06-04 12:00:00 23.6 6 Este 11 Nordeste 0 1012.5 0.7 66
2019-06-04 11:00:00 22.8 8 Nordeste 12 Este 0 1012.3 0.6 71
2019-06-04 10:00:00 21.8 8 Nordeste 13 Nordeste 0 1012.1 0.3 76
2019-06-04 09:00:00 20.8 8 Nordeste 14 Nordeste 0 1011.8 0 81
2019-06-04 08:00:00 18 8 Norte 12 Norte 0 1011.7 -0.4 83
2019-06-04 07:00:00 15.1 10 Norte 12 Norte 0 1011.8 -0.5 88
2019-06-04 06:00:00 15.3 8 Norte 9 Norte 0 1011.8 -1.2 89
2019-06-04 05:00:00 15.7 6 Norte 8 Norte 0 1012.1 -1.5 88
2019-06-04 04:00:00 16.2 3 Noroeste 7 Noroeste 0 1012.3 -1.8 88
2019-06-04 03:00:00 16.5 4 Norte 6 Norte 0 1013 -1.5 88
2019-06-04 02:00:00 16.5 3 Noroeste 5 Oeste 0 1013.6 -1.2 86
2019-06-04 01:00:00 17 0 Calma 4 Sudeste 0 1014.1 -0.6 82
2019-06-04 00:00:00 17.4 0 Calma 5 Norte 0 1014.5 -0.2 79
2019-06-03 23:00:00 18.6 4 Sudoeste 6 Sur 0 1014.8 0.1 79
2019-06-03 22:00:00 19.5 2 Sudoeste 8 Sur 0 1014.7 -0.3 76
2019-06-03 21:00:00 20.6 6 Sur 9 Sur 0 1014.7 -0.6 73
2019-06-03 20:00:00 22.4 8 Sur 12 Sur 0 1014.7 -1 66
2019-06-03 19:00:00 22.8 11 Sur 13 Sur 0 1015 -0.9 66
2019-06-03 18:00:00 23.3 11 Sur 15 Sur 0 1015.3 -1.2 62
2019-06-03 17:00:00 24 12 Sur 15 Sur 0 1015.7 -1.4 57
2019-06-03 16:00:00 23.9 12 Sur 20 Sur 0 1015.9 -1.3 59
2019-06-03 15:00:00 23.9 15 Sur 19 Sur 0 1016.5 -0.7 61
2019-06-03 14:00:00 23.9 8 Sudeste 18 Sudeste 0 1017.1 0.1 60
2019-06-03 13:00:00 24.4 7 Sudeste 14 Sudeste 0 1017.2 0.1 60
2019-06-03 12:00:00 23.7 6 Sudeste 12 Sudeste 0 1017.2 0.5 64
2019-06-03 11:00:00 22.6 6 Este 9 Este 0 1017 0.5 66
2019-06-03 10:00:00 22.1 4 Este 8 Este 0 1017.1 0.8 68
2019-06-03 09:00:00 21.3 5 Este 8 Nordeste 0 1016.7 0.7 70
2019-06-03 08:00:00 18.2 6 Norte 9 Norte 0 1016.5 0.5 72
2019-06-03 07:00:00 14.9 7 Norte 10 Norte 0 1016.3 0 75
2019-06-03 06:00:00 14.8 6 Norte 9 Norte 0 1016 -0.6 74
2019-06-03 05:00:00 15.3 4 Norte 9 Noroeste 0 1016 -0.9 74
2019-06-03 04:00:00 15.7 7 Norte 9 Norte 0 1016.3 -0.9 77
2019-06-03 03:00:00 15.6 8 Norte 9 Norte 0 1016.6 -0.8 79
2019-06-03 02:00:00 16.1 6 Norte 8 Norte 0 1016.9 -0.6 82
2019-06-03 01:00:00 16.6 5 Norte 7 Norte 0 1017.2 0 83
2019-06-03 00:00:00 17.2 3 Norte 5 Norte 0 1017.4 0.5 80
2019-06-02 23:00:00 18.2 0 Calma 8 Sur 0 1017.5 0.8 78
2019-06-02 22:00:00 19.5 6 Sur 8 Sur 0 1017.2 0.5 73
2019-06-02 21:00:00 20.3 6 Sur 13 Sur 0 1016.9 -0.2 71
2019-06-02 20:00:00 21.5 11 Sur 15 Sur 0 1016.7 -0.7 66
2019-06-02 19:00:00 22.3 12 Sur 14 Sur 0 1016.7 -1 62
2019-06-02 18:00:00 23.1 8 Sur 13 Sur 0 1017.1 -0.9 58
2019-06-02 17:00:00 23.3 10 Sur 15 Sur 0 1017.4 -1.2 57
2019-06-02 16:00:00 23.4 8 Sur 14 Sur 0 1017.7 -1.2 55
2019-06-02 15:00:00 23.9 7 Sur 14 Sur 0 1018 -1 58
2019-06-02 14:00:00 23.2 10 Sur 15 Sur 0 1018.6 -0.1 61
2019-06-02 13:00:00 22.8 10 Sur 16 Sudeste 0 1018.9 0.2 64
2019-06-02 12:00:00 22.9 6 Sudeste 14 Sudeste 0 1019 0.4 67
2019-06-02 11:00:00 22.4 5 Este 9 Este 0 1018.7 0.2 70
2019-06-02 10:00:00 21.2 5 Este 8 Sudeste 0 1018.7 0.6 77
2019-06-02 09:00:00 20.7 3 Sudeste 6 Este 0 1018.6 0.7 79
2019-06-02 08:00:00 17.7 5 Norte 9 Norte 0 1018.5 0.7 87
2019-06-02 07:00:00 15.3 7 Norte 9 Norte 0 1018.1 0.1 92
2019-06-02 06:00:00 15.6 9 Norte 10 Norte 0 1017.9 -0.2 92
2019-06-02 05:00:00 15.2 8 Norte 9 Norte 0 1017.8 -0.9 91
2019-06-02 04:00:00 15.6 8 Norte 9 Norte 0 1018 -1.1 90
2019-06-02 03:00:00 16.1 6 Norte 9 Norte 0 1018.1 -1.3 87
2019-06-02 02:00:00 16.3 6 Norte 8 Norte 0 1018.7 -0.8 87
2019-06-02 01:00:00 16.7 5 Norte 6 Noroeste 0 1019.1 0 85
2019-06-02 00:00:00 17.2 6 Norte 8 Norte 0 1019.4 0.5 82
2019-06-01 23:00:00 18.1 4 Norte 6 Norte 0 1019.5 0.7 83
2019-06-01 22:00:00 19.5 3 Sudeste 8 Sudoeste 0 1019.1 0.4 78
2019-06-01 21:00:00 20.3 6 Sudoeste 10 Sudoeste 0 1018.9 -0.1 75
2019-06-01 20:00:00 22.5 9 Sur 14 Sudoeste 0 1018.8 -0.6 67
2019-06-01 19:00:00 23.3 12 Sudoeste 15 Sudoeste 0 1018.7 -1.1 64
2019-06-01 18:00:00 22.7 12 Sur 16 Sur 0 1019 -1.3 66
2019-06-01 17:00:00 23.1 11 Sur 14 Sur 0 1019.4 -1.4 66
2019-06-01 16:00:00 23.2 11 Sur 17 Sur 0 1019.8 -1.1 66
2019-06-01 15:00:00 23.3 9 Sur 16 Sudeste 0 1020.3 -0.8 64
2019-06-01 14:00:00 23.5 9 Sudeste 16 Sudeste 0 1020.8 -0.2 63
2019-06-01 13:00:00 23.3 8 Sudeste 14 Sudeste 0 1020.9 -0.1 62
2019-06-01 12:00:00 22.7 8 Sudeste 13 Este 0 1021.1 0.2 67
2019-06-01 11:00:00 21.5 7 Este 11 Este 0 1021 0.3 73
2019-06-01 10:00:00 21.3 4 Este 9 Este 0 1021 0.8 65
2019-06-01 09:00:00 20.6 4 Sudeste 7 Este 0 1020.9 1.1 63
2019-06-01 08:00:00 18.2 3 Este 8 Noroeste 0 1020.7 0.9 72
2019-06-01 07:00:00 14.6 5 Norte 10 Norte 0 1020.2 0.3 75
2019-06-01 06:00:00 14.2 9 Norte 12 Norte 0 1019.8 -0.2 73
2019-06-01 05:00:00 14.7 3 Noroeste 5 Norte 0 1019.8 -0.7 76
2019-06-01 04:00:00 15.3 5 Noroeste 7 Norte 0 1019.9 -0.9 79
2019-06-01 03:00:00 16.2 2 Sur 7 Sudoeste 0 1020 -1.2 75
2019-06-01 02:00:00 16.1 5 Sudoeste 10 Norte 0 1020.5 -0.5 72
2019-06-01 01:00:00 16.5 9 Norte 13 Norte 0 1020.8 -0.1 68
2019-06-01 00:00:00 17 8 Norte 10 Norte 0 1021.2 0.4 70
2019-05-31 23:00:00 18.1 6 Norte 8 Norte 0 1021 0.1 67
2019-05-31 22:00:00 18.9 4 Oeste 12 Sudoeste 0 1020.9 -0.1 71
2019-05-31 21:00:00 19.6 9 Sudoeste 16 Sudoeste 0 1020.8 -0.4 77
2019-05-31 20:00:00 21.6 10 Sudoeste 15 Sudoeste 0 1020.9 -0.7 69
2019-05-31 19:00:00 22.9 10 Sudoeste 14 Sudoeste 0 1021 -1 65
2019-05-31 18:00:00 22.7 9 Sur 13 Sur 0 1021.2 -1 60
2019-05-31 17:00:00 23.5 5 Sur 12 Sudeste 0 1021.6 -0.8 59
2019-05-31 16:00:00 23.9 7 Sudeste 11 Sudeste 0 1022 -0.6 54
2019-05-31 15:00:00 23.6 7 Sudeste 15 Sur 0 1022.2 -0.5 54
2019-05-31 14:00:00 22.6 10 Sur 18 Sudoeste 0 1022.4 -0.2 57
2019-05-31 13:00:00 23 13 Sudoeste 18 Sudoeste 0 1022.6 0 64
2019-05-31 12:00:00 22.3 14 Sudoeste 23 Sur 0 1022.7 0.3 67
2019-05-31 11:00:00 21.7 16 Sudoeste 19 Sudoeste 0 1022.6 0.5 67
2019-05-31 10:00:00 21 12 Sudoeste 15 Sudoeste 0 1022.6 0.7 67
2019-05-31 09:00:00 20.5 4 Sur 7 Norte 0 1022.4 0.7 61
2019-05-31 08:00:00 17.5 6 Norte 9 Norte 0 1022.1 0.6 64
2019-05-31 07:00:00 14.1 8 Norte 10 Norte 0 1021.9 0.3 79
2019-05-31 06:00:00 14.6 8 Norte 11 Norte 0 1021.7 -0.2 77
2019-05-31 05:00:00 14.3 9 Norte 11 Norte 0 1021.5 -0.9 81
2019-05-31 04:00:00 15 5 Norte 9 Norte 0 1021.6 -1.4 77
2019-05-31 03:00:00 15.8 4 Norte 7 Norte 0 1021.9 -1.2 75
2019-05-31 02:00:00 15.9 3 Noroeste 6 Nordeste 0 1022.4 -0.9 73
2019-05-31 01:00:00 16.7 3 Norte 8 Noroeste 0 1023 0.5 76
2019-05-31 00:00:00 17.3 3 Oeste 7 Noroeste 0 1023.1 0.9 73
2019-05-30 23:00:00 17.8 5 Norte 16 Oeste 0 1023.3 1.4 71
2019-05-30 22:00:00 18.5 12 Oeste 21 Oeste 0 1022.5 0.8 71
2019-05-30 21:00:00 19.5 10 Oeste 25 Oeste 0 1022.2 0.4 60
2019-05-30 20:00:00 21.1 18 Oeste 32 Sudoeste 0 1021.9 -0.6 50
2019-05-30 19:00:00 21.3 22 Sudoeste 36 Sudoeste 0 1021.7 -0.9 60
2019-05-30 18:00:00 21.6 29 Sudoeste 36 Sudoeste 0 1021.8 -0.8 59
2019-05-30 17:00:00 22.2 25 Sudoeste 32 Sudoeste 0 1022.5 -0.6 58
2019-05-30 16:00:00 23 23 Sudoeste 28 Sudoeste 0 1022.6 -0.3 53
2019-05-30 15:00:00 22.9 21 Sudoeste 25 Sur 0 1022.6 -0.3 51
2019-05-30 14:00:00 22.6 19 Sudoeste 25 Sudoeste 0 1023.1 0.3 50
2019-05-30 13:00:00 22.5 21 Sudoeste 31 Sur 0 1022.9 0.3 52
2019-05-30 12:00:00 22 18 Sur 26 Sudoeste 0 1022.9 0.5 57
2019-05-30 11:00:00 22.3 8 Sur 15 Sudeste 0 1022.8 0.9 54
2019-05-30 10:00:00 21.6 6 Sudoeste 18 Oeste 0 1022.6 1 50
2019-05-30 09:00:00 19.7 9 Oeste 23 Noroeste 0 1022.4 1.1 61
2019-05-30 08:00:00 17.8 10 Noroeste 23 Noroeste 0 1021.9 0.6 70
2019-05-30 07:00:00 15.9 10 Noroeste 21 Noroeste 0 1021.6 0.3 76
2019-05-30 06:00:00 15.7 9 Noroeste 19 Noroeste 0 1021.3 -0.2 76
2019-05-30 05:00:00 15.1 9 Noroeste 15 Noroeste 0 1021.3 -0.5 76
2019-05-30 04:00:00 14.9 4 Noroeste 10 Noroeste 0 1021.3 -0.7 75
2019-05-30 03:00:00 15 5 Noroeste 12 Noroeste 0 1021.5 -0.5 76
2019-05-30 02:00:00 15.1 6 Noroeste 12 Noroeste 0 1021.8 0.3 80
2019-05-30 01:00:00 15.2 6 Norte 8 Norte 0 1022 1.4 77
2019-05-30 00:00:00 15.7 6 Norte 8 Norte 0 1022 2.1 74
2019-05-29 23:00:00 16.7 3 Noroeste 10 Sudoeste 0 1021.5 2.2 70
2019-05-29 22:00:00 17.4 6 Sudoeste 17 Sudoeste 0 1020.6 1.6 68
2019-05-29 21:00:00 18.1 14 Sudoeste 22 Sudoeste 0 1019.9 1.1 66
2019-05-29 20:00:00 18.6 16 Sudoeste 23 Sudoeste 0 1019.3 0.6 65
2019-05-29 19:00:00 19.3 17 Sudoeste 22 Sur 0 1019 0.3 61
2019-05-29 18:00:00 20.1 19 Sur 24 Sur 0 1018.8 0.3 56
2019-05-29 17:00:00 21 15 Sur 19 Sur 0 1018.7 -0.1 52
2019-05-29 16:00:00 21.2 9 Sur 17 Sudeste 0 1018.7 0 53
2019-05-29 15:00:00 21.3 9 Sudeste 21 Este 0 1018.5 0 52
2019-05-29 14:00:00 19.5 18 Este 31 Este 0 1018.8 0.5 55
2019-05-29 13:00:00 20.6 20 Este 30 Este 0 1018.7 0.6 49
2019-05-29 12:00:00 18.8 15 Este 27 Este 0 1018.5 0.9 60
2019-05-29 11:00:00 18.4 16 Nordeste 30 Nordeste 0 1018.3 1.2 62
2019-05-29 10:00:00 17.2 18 Nordeste 27 Nordeste 0 1018.1 1.7 72
2019-05-29 09:00:00 17.4 16 Nordeste 27 Nordeste 0 1017.6 1.7 72
2019-05-29 08:00:00 17.2 7 Nordeste 15 Norte 0 1017.1 1.4 76
2019-05-29 07:00:00 15.8 9 Norte 14 Norte 0 1016.4 1.1 80
2019-05-29 06:00:00 16.1 6 Nordeste 24 Nordeste 0 1015.9 0.6 78
2019-05-29 05:00:00 16.9 15 Nordeste 23 Nordeste 0 1015.7 0.4 76
2019-05-29 04:00:00 18 9 Este 17 Sudeste 0 1015.3 0.2 67
2019-05-29 03:00:00 18 10 Sudeste 17 Sudeste 0 1015.3 0.3 65
2019-05-29 02:00:00 18.1 10 Sudeste 19 Sudeste 0 1015.3 0.7 70
2019-05-29 01:00:00 17.9 10 Sudeste 19 Este 0 1015.1 1.2 74
2019-05-29 00:00:00 18.1 10 Este 21 Este 0 1015 1.8 74
2019-05-28 23:00:00 18 15 Este 28 Este 0 1014.6 2.4 72
2019-05-28 22:00:00 17.9 21 Este 35 Este 0 1013.9 2.2 72
2019-05-28 21:00:00 18 22 Este 38 Este 0 1013.2 2 73
2019-05-28 20:00:00 18.3 24 Este 43 Este 0 1012.2 1.4 77
2019-05-28 19:00:00 20.4 19 Nordeste 30 Nordeste 0 1011.7 1.2 77
2019-05-28 18:00:00 21.1 14 Nordeste 27 Este 0 1011.2 0.9 73
2019-05-28 17:00:00 20.8 19 Este -- -- 0 1010.8 0.1 76
2019-05-28 16:00:00 22.1 21 Sudoeste 39 Sudoeste 0 1010.5 -0.6 65
2019-05-28 15:00:00 22.2 32 Sudoeste 39 Sudoeste 0 1010.3 -0.7 69
2019-05-28 14:00:00 21.5 30 Sudoeste 35 Sudoeste 0 1010.7 -0.3 79
2019-05-28 13:00:00 21.2 27 Sudoeste 35 Sudoeste 0 1011.1 0.2 79
2019-05-28 12:00:00 22 24 Sudoeste 31 Sudoeste 0 1011 0.2 76
2019-05-28 11:00:00 21.4 17 Sudoeste 28 Sudoeste 0 1011 0.5 79
2019-05-28 10:00:00 20.8 19 Sudoeste 25 Sudoeste 0 1010.9 0.8 81
2019-05-28 09:00:00 19.2 12 Sudoeste 15 Oeste 0 1010.8 1 91
2019-05-28 08:00:00 17.8 5 Oeste 8 Oeste 0 1010.5 0.4 93
2019-05-28 07:00:00 16.4 5 Oeste 7 Noroeste 0 1010.1 0.1 94
2019-05-28 06:00:00 16 3 Noroeste 7 Norte 0 1009.8 -0.6 93
2019-05-28 05:00:00 17.1 3 Oeste 8 Noroeste 0 1010.1 -0.8 93
2019-05-28 04:00:00 17.1 5 Noroeste 12 Oeste 0 1010 -0.6 92
2019-05-28 03:00:00 17.8 8 Oeste 13 Oeste 0 1010.4 -0.2 91
2019-05-28 02:00:00 18.2 6 Oeste 18 Sudoeste 0 1010.9 0.5 91
2019-05-28 01:00:00 18.4 16 Sudoeste 21 Sudoeste 0 1010.6 0.5 92
2019-05-28 00:00:00 18.6 14 Sudoeste 19 Sur 0 1010.6 0.7 92
2019-05-27 23:00:00 18.6 12 Sur 15 Sur 0 1010.4 0.9 91
2019-05-27 22:00:00 18.6 11 Sur 17 Sur 0 1010.1 0.8 87
2019-05-27 21:00:00 19.1 9 Sudoeste 19 Sudoeste 0 1009.9 0.5 86
2019-05-27 20:00:00 20.9 12 Sudoeste 28 Sudoeste 0 1009.5 0 73
2019-05-27 19:00:00 20.3 23 Sudoeste 31 Sudoeste 0 1009.3 -0.7 80
2019-05-27 18:00:00 21.5 25 Sudoeste 30 Sudoeste 0 1009.4 -0.9 75
2019-05-27 17:00:00 22.1 22 Sudoeste 28 Sudoeste 0 1009.5 -1 72
2019-05-27 16:00:00 21.9 24 Sudoeste 32 Sudoeste 0 1010 -0.8 74
2019-05-27 15:00:00 22.5 19 Sudoeste 24 Sudoeste 0 1010.3 -0.4 71
2019-05-27 14:00:00 21.9 15 Sur 18 Sudoeste 0 1010.5 0.3 71
2019-05-27 13:00:00 20.7 14 Sur 20 Sur 0 1010.8 0.7 78
2019-05-27 12:00:00 21.2 15 Sur 23 Sur 0 1010.7 0.8 66
2019-05-27 11:00:00 21.3 14 Este 24 Este 0 1010.2 0.4 62
2019-05-27 10:00:00 23.8 11 Norte 28 Norte 0 1010.1 0.6 40
2019-05-27 09:00:00 21.8 17 Noroeste 28 Noroeste 0 1009.9 0.5 44
2019-05-27 08:00:00 20.3 14 Noroeste 25 Noroeste 0 1009.8 0.3 47
2019-05-27 07:00:00 18.9 15 Noroeste 27 Noroeste 0 1009.5 -0.3 49
2019-05-27 06:00:00 18.3 14 Noroeste 24 Noroeste 0 1009.4 -0.6 51
2019-05-27 05:00:00 17.5 12 Noroeste 28 Noroeste 0 1009.5 -1.1 56
2019-05-27 04:00:00 18 16 Noroeste 28 Noroeste 0 1009.8 -1.7 61
2019-05-27 03:00:00 18 10 Noroeste 24 Oeste 0 1010 -1.9 60
2019-05-27 02:00:00 18 13 Oeste 25 Noroeste 0 1010.6 -1.7 61
2019-05-27 01:00:00 17.6 8 Noroeste 20 Oeste 0 1011.5 -0.6 67
2019-05-27 00:00:00 17 11 Oeste 17 Oeste 0 1011.9 -0.1 73